createdAt,value
2019-05-11T00:00:59.043Z,100084.91
2019-05-11T00:03:29.806Z,100084.73
2019-05-11T00:06:00.581Z,100091.59
2019-05-11T00:08:31.284Z,100100.23
2019-05-11T00:11:01.932Z,100100.91
2019-05-11T00:13:33.045Z,100101.22
2019-05-11T00:16:04.087Z,100099.58
2019-05-11T00:18:34.852Z,100100.76
2019-05-11T00:21:05.839Z,100103.42
2019-05-11T00:23:36.885Z,100105.25
2019-05-11T00:26:08.642Z,100108.09
2019-05-11T00:28:39.655Z,100115.77
2019-05-11T00:31:10.347Z,100117.23
2019-05-11T00:33:42.169Z,100107.23
2019-05-11T00:36:13.195Z,100091.23
2019-05-11T00:38:43.864Z,100093.45
2019-05-11T00:41:14.967Z,100083.63
2019-05-11T00:43:45.648Z,100078.94
2019-05-11T00:46:16.314Z,100062.80
2019-05-11T00:48:47.011Z,100054.97
2019-05-11T00:51:18.019Z,100052.81
2019-05-11T00:53:49.053Z,100050.69
2019-05-11T00:56:20.098Z,100051.33
2019-05-11T00:58:51.105Z,100047.66
2019-05-11T01:01:22.100Z,100038.28
2019-05-11T01:03:53.016Z,100031.08
2019-05-11T01:06:23.729Z,100040.73
2019-05-11T01:08:54.370Z,100040.95
2019-05-11T01:11:44.407Z,100046.80
2019-05-11T01:14:15.073Z,100049.97
2019-05-11T01:16:45.754Z,100043.95
2019-05-11T01:19:16.789Z,100043.66
2019-05-11T01:21:47.483Z,100047.01
2019-05-11T01:24:18.546Z,100042.34
2019-05-11T01:26:50.091Z,100034.70
2019-05-11T01:29:20.943Z,100037.02
2019-05-11T01:31:51.976Z,100029.34
2019-05-11T01:34:22.675Z,100034.30
2019-05-11T01:36:53.732Z,100030.34
2019-05-11T01:39:24.468Z,100021.38
2019-05-11T01:41:55.135Z,100032.91
2019-05-11T01:44:26.248Z,100034.25
2019-05-11T01:46:56.918Z,100040.09
2019-05-11T01:49:27.640Z,100047.25
2019-05-11T01:51:58.305Z,100045.58
2019-05-11T01:54:29.007Z,100053.43
2019-05-11T01:56:59.700Z,100041.78
2019-05-11T01:59:30.419Z,100044.11
2019-05-11T02:02:01.391Z,100038.29
2019-05-11T02:04:32.066Z,100036.61
2019-05-11T02:07:02.775Z,100033.80
2019-05-11T02:09:33.764Z,100028.62
2019-05-11T02:12:04.494Z,100040.11
2019-05-11T02:14:35.167Z,100047.45
2019-05-11T02:17:05.853Z,100032.61
2019-05-11T02:19:37.225Z,100030.14
2019-05-11T02:22:07.909Z,100023.48
2019-05-11T02:24:38.883Z,100013.33
2019-05-11T02:27:09.561Z,100024.47
2019-05-11T02:29:41.586Z,100011.66
2019-05-11T02:32:12.932Z,100014.31
2019-05-11T02:34:43.965Z,100008.31
2019-05-11T02:37:14.710Z,99998.83
2019-05-11T02:39:45.419Z,100000.81
2019-05-11T02:42:16.501Z,100003.13
2019-05-11T02:44:47.224Z,100002.98
2019-05-11T02:47:18.284Z,99991.98
2019-05-11T02:49:49.013Z,99991.29
2019-05-11T02:52:20.517Z,99992.79
2019-05-11T02:54:53.939Z,99984.12
2019-05-11T02:57:24.936Z,99998.08
2019-05-11T02:59:55.884Z,99998.91
2019-05-11T03:02:27.938Z,100004.05
2019-05-11T03:04:58.663Z,100016.54
2019-05-11T03:07:29.314Z,100009.55
2019-05-11T03:10:00.030Z,100006.39
2019-05-11T03:12:30.671Z,100005.08
2019-05-11T03:15:01.349Z,99999.43
2019-05-11T03:17:33.877Z,99995.09
2019-05-11T03:20:05.889Z,99991.95
2019-05-11T03:22:36.899Z,99996.41
2019-05-11T03:25:07.729Z,100002.39
2019-05-11T03:27:38.408Z,99999.73
2019-05-11T03:30:09.792Z,100001.55
2019-05-11T03:32:40.795Z,100009.69
2019-05-11T03:35:11.761Z,100006.68
2019-05-11T03:37:42.439Z,99997.35
2019-05-11T03:40:14.317Z,99999.32
2019-05-11T03:42:45.071Z,99998.83
2019-05-11T03:45:16.278Z,99992.69
2019-05-11T03:47:46.974Z,99997.36
2019-05-11T03:50:18.444Z,100004.31
2019-05-11T03:52:49.435Z,100000.69
2019-05-11T03:55:20.118Z,100004.02
2019-05-11T03:57:51.332Z,100003.73
2019-05-11T04:00:23.146Z,100002.20
2019-05-11T04:02:53.787Z,100008.69
2019-05-11T04:05:24.765Z,100010.70
2019-05-11T04:07:55.802Z,100007.73
2019-05-11T04:10:26.839Z,100006.09
2019-05-11T04:12:58.801Z,100001.79
2019-05-11T04:15:29.476Z,100001.63
2019-05-11T04:18:00.170Z,100001.12
2019-05-11T04:20:30.833Z,99997.44
2019-05-11T04:23:01.515Z,99996.80
2019-05-11T04:25:32.940Z,99992.31
2019-05-11T04:28:03.614Z,99997.34
2019-05-11T04:30:34.318Z,99993.80
2019-05-11T04:33:06.000Z,99991.83
2019-05-11T04:35:37.123Z,99990.92
2019-05-11T04:38:07.786Z,99978.35
2019-05-11T04:40:38.561Z,99979.61
2019-05-11T04:43:09.627Z,99982.39
2019-05-11T04:45:40.418Z,99980.09
2019-05-11T04:48:11.141Z,99982.05
2019-05-11T04:50:41.956Z,99987.30
2019-05-11T04:53:12.623Z,99985.75
2019-05-11T04:55:43.292Z,99979.78
2019-05-11T04:58:14.078Z,99981.78
2019-05-11T05:00:44.743Z,99985.34
2019-05-11T05:03:15.443Z,99989.94
2019-05-11T05:05:46.441Z,99992.52
2019-05-11T05:08:21.226Z,99989.64
2019-05-11T05:10:52.401Z,99980.16
2019-05-11T05:13:29.569Z,99967.87
2019-05-11T05:15:56.859Z,99962.83
2019-05-11T05:18:27.854Z,99967.87
2019-05-11T05:20:59.589Z,99965.00
2019-05-11T05:23:30.325Z,99971.31
2019-05-11T05:26:01.324Z,99967.17
2019-05-11T05:28:32.019Z,99962.47
2019-05-11T05:31:02.681Z,99963.70
2019-05-11T05:33:33.695Z,99958.45
2019-05-11T05:36:05.192Z,99960.89
2019-05-11T05:38:36.220Z,99953.88
2019-05-11T05:41:06.929Z,99960.95
2019-05-11T05:43:38.058Z,99957.03
2019-05-11T05:46:09.123Z,99955.58
2019-05-11T05:48:40.155Z,99957.56
2019-05-11T05:51:10.842Z,99950.34
2019-05-11T05:53:41.910Z,99939.95
2019-05-11T05:56:12.659Z,99938.77
2019-05-11T05:58:43.348Z,99937.75
2019-05-11T06:01:14.025Z,99939.13
2019-05-11T06:03:45.014Z,99933.42
2019-05-11T06:06:16.090Z,99926.16
2019-05-11T06:08:46.782Z,99925.37
2019-05-11T06:11:17.859Z,99923.78
2019-05-11T06:13:48.893Z,99922.11
2019-05-11T06:16:19.880Z,99903.20
2019-05-11T06:18:50.635Z,99921.94
2019-05-11T06:21:21.293Z,99927.98
2019-05-11T06:23:51.996Z,99922.89
2019-05-11T06:26:22.660Z,99917.77
2019-05-11T06:28:53.712Z,99919.58
2019-05-11T06:31:24.405Z,99918.73
2019-05-11T06:33:55.151Z,99912.45
2019-05-11T06:36:25.822Z,99911.75
2019-05-11T06:38:56.513Z,99900.55
2019-05-11T06:41:27.491Z,99908.53
2019-05-11T06:44:01.806Z,99895.02
2019-05-11T06:46:34.702Z,99891.36
2019-05-11T06:49:03.594Z,99883.22
2019-05-11T06:51:35.528Z,99882.11
2019-05-11T06:54:06.204Z,99880.15
2019-05-11T06:56:36.873Z,99876.71
2019-05-11T06:59:07.545Z,99874.68
2019-05-11T07:01:38.385Z,99877.05
2019-05-11T07:04:09.395Z,99876.32
2019-05-11T07:06:40.266Z,99871.66
2019-05-11T07:09:10.914Z,99867.23
2019-05-11T07:11:41.929Z,99870.55
2019-05-11T07:14:20.503Z,99869.53
2019-05-11T07:16:45.572Z,99877.74
2019-05-11T07:19:16.666Z,99881.42
2019-05-11T07:21:47.572Z,99875.84
2019-05-11T07:24:18.580Z,99872.72
2019-05-11T07:26:49.251Z,99871.38
2019-05-11T07:29:19.911Z,99870.38
2019-05-11T07:31:50.851Z,99869.66
2019-05-11T07:34:21.511Z,99873.39
2019-05-11T07:36:52.475Z,99865.00
2019-05-11T07:39:23.150Z,99867.30
2019-05-11T07:41:53.828Z,99861.82
2019-05-11T07:44:37.629Z,99862.77
2019-05-11T07:46:58.731Z,99862.94
2019-05-11T07:49:29.856Z,99862.09
2019-05-11T07:52:00.519Z,99860.08
2019-05-11T07:54:31.208Z,99870.19
2019-05-11T07:57:02.501Z,99868.78
2019-05-11T07:59:33.411Z,99862.81
2019-05-11T08:02:04.348Z,99866.42
2019-05-11T08:04:35.010Z,99872.62
2019-05-11T08:07:07.722Z,99875.38
2019-05-11T08:09:38.516Z,99884.06
2019-05-11T08:12:09.434Z,99890.19
2019-05-11T08:14:56.578Z,99886.53
2019-05-11T08:17:12.859Z,99880.99
2019-05-11T08:19:43.543Z,99884.97
2019-05-11T08:22:14.681Z,99891.92
2019-05-11T08:24:48.005Z,99899.34
2019-05-11T08:27:18.785Z,99897.52
2019-05-11T08:29:49.516Z,99895.38
2019-05-11T08:32:20.454Z,99899.39
2019-05-11T08:34:51.211Z,99896.06
2019-05-11T08:37:21.900Z,99896.39
2019-05-11T08:39:52.573Z,99901.75
2019-05-11T08:42:23.232Z,99902.19
2019-05-11T08:44:54.624Z,99904.15
2019-05-11T08:47:28.224Z,99906.65
2019-05-11T08:49:59.061Z,99910.91
2019-05-11T08:52:30.271Z,99908.17
2019-05-11T08:55:01.198Z,99910.52
2019-05-11T08:57:32.267Z,99908.56
2019-05-11T09:00:03.037Z,99912.31
2019-05-11T09:02:33.742Z,99908.03
2019-05-11T09:05:05.088Z,99906.12
2019-05-11T09:07:38.196Z,99910.97
2019-05-11T09:10:09.284Z,99908.58
2019-05-11T09:12:40.383Z,99912.27
2019-05-11T09:15:11.293Z,99908.26
2019-05-11T09:17:42.103Z,99902.20
2019-05-11T09:20:14.470Z,99907.35
2019-05-11T09:22:45.445Z,99902.98
2019-05-11T09:25:18.331Z,99893.73
2019-05-11T09:27:49.549Z,99896.72
2019-05-11T09:30:20.376Z,99892.87
2019-05-11T09:32:51.207Z,99888.75
2019-05-11T09:35:23.285Z,99888.92
2019-05-11T09:37:54.059Z,99886.91
2019-05-11T09:40:24.783Z,99888.67
2019-05-11T09:42:55.785Z,99894.14
2019-05-11T09:45:27.823Z,99892.59
2019-05-11T09:47:58.731Z,99884.83
2019-05-11T09:50:29.486Z,99897.31
2019-05-11T09:53:01.520Z,99893.72
2019-05-11T09:55:32.465Z,99899.98
2019-05-11T09:58:03.498Z,99906.34
2019-05-11T10:00:34.776Z,99909.80
2019-05-11T10:03:05.463Z,99916.35
2019-05-11T10:05:38.317Z,99916.31
2019-05-11T10:08:08.881Z,99917.98
2019-05-11T10:10:39.865Z,99920.31
2019-05-11T10:13:10.982Z,99924.08
2019-05-11T10:15:42.007Z,99920.44
2019-05-11T10:18:12.708Z,99924.16
2019-05-11T10:20:43.457Z,99913.14
2019-05-11T10:23:14.165Z,99908.03
2019-05-11T10:25:45.155Z,99909.41
2019-05-11T10:28:17.908Z,99907.83
2019-05-11T10:30:51.276Z,99915.51
2019-05-11T10:33:21.938Z,99907.08
2019-05-11T10:35:52.639Z,99909.63
2019-05-11T10:38:23.289Z,99918.69
2019-05-11T10:40:54.257Z,99911.77
2019-05-11T10:43:24.909Z,99899.27
2019-05-11T10:45:55.844Z,99893.17
2019-05-11T10:48:28.202Z,99893.17
2019-05-11T10:50:59.012Z,99881.70
2019-05-11T10:53:29.687Z,99876.14
2019-05-11T10:56:00.801Z,99873.98
2019-05-11T10:58:31.841Z,99862.16
2019-05-11T11:01:02.828Z,99866.33
2019-05-11T11:03:34.128Z,99860.27
2019-05-11T11:06:04.817Z,99841.77
2019-05-11T11:08:35.482Z,99834.30
2019-05-11T11:11:08.142Z,99829.05
2019-05-11T11:13:39.762Z,99828.45
2019-05-11T11:16:10.436Z,99824.45
2019-05-11T11:18:41.482Z,99826.17
2019-05-11T11:21:12.412Z,99818.89
2019-05-11T11:23:43.459Z,99819.27
2019-05-11T11:26:14.394Z,99806.14
2019-05-11T11:28:47.809Z,99805.58
2019-05-11T11:31:18.919Z,99803.44
2019-05-11T11:33:49.670Z,99800.84
2019-05-11T11:36:20.335Z,99797.64
2019-05-11T11:38:51.345Z,99803.28
2019-05-11T11:41:22.610Z,99792.31
2019-05-11T11:43:53.634Z,99798.05
2019-05-11T11:46:24.697Z,99793.34
2019-05-11T11:48:57.953Z,99785.89
2019-05-11T11:51:28.688Z,99778.88
2019-05-11T11:53:59.574Z,99775.70
2019-05-11T11:56:30.573Z,99776.33
2019-05-11T11:59:01.221Z,99774.80
2019-05-11T12:01:31.915Z,99773.41
2019-05-11T12:04:02.859Z,99778.52
2019-05-11T12:06:33.525Z,99779.90
2019-05-11T12:09:08.850Z,99782.30
2019-05-11T12:11:39.463Z,99783.00
2019-05-11T12:14:10.599Z,99778.80
2019-05-11T12:16:41.271Z,99782.09
2019-05-11T12:19:12.309Z,99787.03
2019-05-11T12:21:43.979Z,99786.52
2019-05-11T12:24:14.975Z,99781.68
2019-05-11T12:26:48.080Z,99781.63
2019-05-11T12:29:18.971Z,99786.64
2019-05-11T12:31:49.806Z,99781.13
2019-05-11T12:34:20.459Z,99777.36
2019-05-11T12:36:52.759Z,99776.20
2019-05-11T12:39:23.437Z,99781.88
2019-05-11T12:41:54.121Z,99781.25
2019-05-11T12:44:24.789Z,99780.81
2019-05-11T12:46:58.160Z,99776.09
2019-05-11T12:49:29.045Z,99775.26
2019-05-11T12:52:00.237Z,99776.48
2019-05-11T12:54:33.907Z,99786.52
2019-05-11T12:57:03.651Z,99786.02
2019-05-11T12:59:34.667Z,99788.91
2019-05-11T13:02:08.158Z,99791.58
2019-05-11T13:04:40.981Z,99792.19
2019-05-11T13:07:11.623Z,99794.92
2019-05-11T13:09:43.046Z,99792.84
2019-05-11T13:12:13.707Z,99798.53
2019-05-11T13:14:44.690Z,99800.04
2019-05-11T13:17:15.756Z,99797.60
2019-05-11T13:19:47.968Z,99800.04
2019-05-11T13:22:19.227Z,99790.69
2019-05-11T13:24:50.408Z,99781.56
2019-05-11T13:27:21.505Z,99780.49
2019-05-11T13:29:52.684Z,99777.16
2019-05-11T13:32:24.826Z,99783.84
2019-05-11T13:34:55.606Z,99779.53
2019-05-11T13:37:28.276Z,99780.99
2019-05-11T13:39:59.228Z,99781.38
2019-05-11T13:42:30.317Z,99774.13
2019-05-11T13:45:00.976Z,99768.36
2019-05-11T13:47:32.033Z,99777.94
2019-05-11T13:50:02.962Z,99773.19
2019-05-11T13:52:34.011Z,99772.91
2019-05-11T13:55:07.797Z,99766.49
2019-05-11T13:57:39.899Z,99769.08
2019-05-11T14:00:11.285Z,99769.95
2019-05-11T14:02:42.348Z,99769.62
2019-05-11T14:05:13.382Z,99779.06
2019-05-11T14:07:48.267Z,99772.00
2019-05-11T14:10:19.384Z,99784.20
2019-05-11T14:12:50.512Z,99779.81
2019-05-11T14:15:21.515Z,99777.70
2019-05-11T14:20:25.255Z,99779.04
2019-05-11T14:22:58.278Z,99775.62
2019-05-11T14:25:29.818Z,99769.20
2019-05-11T14:28:00.696Z,99763.27
2019-05-11T14:30:31.690Z,99760.75
2019-05-11T14:32:21.224Z,99772.13
2019-05-11T14:33:02.720Z,99762.71
2019-05-11T14:38:40.682Z,99776.97
2019-05-11T14:41:11.909Z,99779.04
2019-05-11T14:43:42.618Z,99782.36
2019-05-11T14:46:13.665Z,99787.94
2019-05-11T14:48:44.769Z,99786.52
2019-05-11T14:51:18.040Z,99790.95
2019-05-11T14:53:50.296Z,99791.62
2019-05-11T14:56:21.374Z,99780.55
2019-05-11T14:58:52.306Z,99779.19
2019-05-11T15:01:23.479Z,99773.86
2019-05-11T15:03:55.340Z,99780.97
2019-05-11T15:06:27.919Z,99778.60
2019-05-11T15:08:58.764Z,99779.45
2019-05-11T15:11:29.838Z,99783.20
2019-05-11T15:14:00.671Z,99781.45
2019-05-11T15:16:31.645Z,99792.78
2019-05-11T15:19:03.980Z,99796.05
2019-05-11T15:21:35.647Z,99799.20
2019-05-11T15:24:09.108Z,99807.95
2019-05-11T15:26:40.459Z,99803.28
2019-05-11T15:29:11.569Z,99816.25
2019-05-11T15:31:42.516Z,99809.92
2019-05-11T15:34:13.262Z,99807.55
2019-05-11T15:36:44.302Z,99807.84
2019-05-11T15:39:15.320Z,99800.12
2019-05-11T15:41:47.927Z,99802.26
2019-05-11T15:44:18.552Z,99801.61
2019-05-11T15:46:49.316Z,99801.46
2019-05-11T15:49:20.067Z,99801.64
2019-05-11T15:51:51.215Z,99793.72
2019-05-11T15:54:21.900Z,99784.75
2019-05-11T15:56:52.862Z,99780.48
2019-05-11T15:59:24.016Z,99781.20
2019-05-11T16:01:54.816Z,99782.61
2019-05-11T16:04:27.979Z,99790.75
2019-05-11T16:07:00.150Z,99785.58
2019-05-11T16:09:32.699Z,99798.49
2019-05-11T16:12:03.419Z,99804.55
2019-05-11T16:14:34.106Z,99810.54
2019-05-11T16:17:04.814Z,99824.52
2019-05-11T16:19:35.609Z,99826.36
2019-05-11T16:22:10.064Z,99835.45
2019-05-11T16:24:40.853Z,99836.67
2019-05-11T16:27:12.032Z,99846.47
2019-05-11T16:29:43.038Z,99850.31
2019-05-11T16:32:14.071Z,99861.82
2019-05-11T16:34:44.838Z,99870.67
2019-05-11T16:37:18.227Z,99864.55
2019-05-11T16:39:49.520Z,99879.03
2019-05-11T16:42:20.693Z,99883.11
2019-05-11T16:44:51.829Z,99885.04
2019-05-11T16:47:22.502Z,99887.69
2019-05-11T16:49:53.178Z,99888.63
2019-05-11T16:52:24.286Z,99888.75
2019-05-11T16:54:54.996Z,99886.84
2019-05-11T16:57:26.022Z,99895.77
2019-05-11T16:59:58.456Z,99902.20
2019-05-11T17:02:30.456Z,99908.86
2019-05-11T17:05:01.933Z,99913.48
2019-05-11T17:07:32.950Z,99906.19
2019-05-11T17:10:05.543Z,99919.86
2019-05-11T17:12:38.555Z,99916.41
2019-05-11T17:15:10.917Z,99925.11
2019-05-11T17:17:41.944Z,99925.56
2019-05-11T17:20:13.382Z,99934.59
2019-05-11T17:22:44.720Z,99938.91
2019-05-11T17:25:15.725Z,99932.02
2019-05-11T17:27:48.644Z,99931.09
2019-05-11T17:30:21.223Z,99935.85
2019-05-11T17:32:53.404Z,99939.41
2019-05-11T17:35:24.063Z,99936.15
2019-05-11T17:37:55.064Z,99943.58
2019-05-11T17:40:28.343Z,99927.50
2019-05-11T17:43:00.027Z,99939.58
2019-05-11T17:45:31.025Z,99947.05
2019-05-11T17:48:01.734Z,99955.06
2019-05-11T17:50:32.415Z,99949.93
2019-05-11T17:53:03.561Z,99959.03
2019-05-11T17:55:34.718Z,99970.23
2019-05-11T17:58:08.523Z,99980.34
2019-05-11T18:00:39.410Z,99983.18
2019-05-11T18:03:11.500Z,99986.84
2019-05-11T18:05:42.741Z,99999.22
2019-05-11T18:08:14.343Z,100003.52
2019-05-11T18:10:47.952Z,100008.73
2019-05-11T18:13:19.799Z,100007.69
2019-05-11T18:15:51.337Z,100016.72
2019-05-11T18:18:24.007Z,100022.39
2019-05-11T18:20:54.467Z,100035.66
2019-05-11T18:23:25.254Z,100045.35
2019-05-11T18:25:56.277Z,100050.56
2019-05-11T18:28:28.996Z,100064.63
2019-05-11T18:30:59.823Z,100069.30
2019-05-11T18:33:30.868Z,100074.15
2019-05-11T18:36:01.905Z,100072.44
2019-05-11T18:38:32.611Z,100072.49
2019-05-11T18:41:03.494Z,100082.48
2019-05-11T18:43:34.388Z,100090.38
2019-05-11T18:46:08.341Z,100096.14
2019-05-11T18:48:39.967Z,100101.23
2019-05-11T18:51:10.648Z,100109.75
2019-05-11T18:53:41.871Z,100118.00
2019-05-11T18:56:13.169Z,100126.51
2019-05-11T18:58:43.851Z,100127.70
2019-05-11T19:01:14.843Z,100132.20
2019-05-11T19:03:47.849Z,100145.44
2019-05-11T19:06:19.064Z,100145.36
2019-05-11T19:08:50.096Z,100150.17
2019-05-11T19:11:21.603Z,100153.17
2019-05-11T19:13:52.301Z,100148.89
2019-05-11T19:16:23.330Z,100154.88
2019-05-11T19:18:54.155Z,100153.88
2019-05-11T19:21:24.908Z,100158.70
2019-05-11T19:23:58.011Z,100156.91
2019-05-11T19:26:28.602Z,100154.27
2019-05-11T19:29:00.773Z,100157.41
2019-05-11T19:31:32.701Z,100153.94
2019-05-11T19:34:03.681Z,100154.91
2019-05-11T19:36:34.721Z,100152.25
2019-05-11T19:39:08.910Z,100154.80
2019-05-11T19:41:40.812Z,100159.78
2019-05-11T19:44:12.042Z,100160.48
2019-05-11T19:46:42.724Z,100165.48
2019-05-11T19:49:13.710Z,100167.64
2019-05-11T19:51:48.525Z,100169.65
2019-05-11T19:54:18.833Z,100173.98
2019-05-11T19:56:52.295Z,100183.97
2019-05-11T19:59:22.620Z,100186.13
2019-05-11T20:01:53.709Z,100195.47
2019-05-11T20:04:25.057Z,100204.81
2019-05-11T20:06:58.100Z,100206.00
2019-05-11T20:09:28.489Z,100212.81
2019-05-11T20:11:59.196Z,100221.84
2019-05-11T20:14:30.269Z,100230.99
2019-05-11T20:17:01.319Z,100238.68
2019-05-11T20:19:32.338Z,100248.31
2019-05-11T20:22:03.801Z,100247.33
2019-05-11T20:24:35.877Z,100261.01
2019-05-11T20:27:08.027Z,100262.34
2019-05-11T20:29:39.028Z,100267.17
2019-05-11T20:32:09.756Z,100278.48
2019-05-11T20:34:40.531Z,100280.02
2019-05-11T20:37:11.543Z,100294.00
2019-05-11T20:39:42.605Z,100294.00
2019-05-11T20:42:13.658Z,100303.83
2019-05-11T20:44:44.739Z,100311.50
2019-05-11T20:47:17.411Z,100320.62
2019-05-11T20:49:48.288Z,100327.64
2019-05-11T20:52:20.368Z,100337.61
2019-05-11T20:54:51.827Z,100344.95
2019-05-11T20:57:24.210Z,100344.09
2019-05-11T20:59:54.909Z,100348.05
2019-05-11T21:02:28.813Z,100345.72
2019-05-11T21:05:00.446Z,100359.08
2019-05-11T21:07:31.171Z,100360.03
2019-05-11T21:10:02.350Z,100363.52
2019-05-11T21:12:33.407Z,100362.98
2019-05-11T21:15:06.773Z,100369.63
2019-05-11T21:17:38.446Z,100371.67
2019-05-11T21:20:11.237Z,100373.79
2019-05-11T21:22:43.286Z,100379.83
2019-05-11T21:25:14.620Z,100390.92
2019-05-11T21:27:45.283Z,100391.73
2019-05-11T21:30:18.512Z,100404.12
2019-05-11T21:32:49.414Z,100404.73
2019-05-11T21:35:21.186Z,100410.03
2019-05-11T21:37:51.869Z,100415.88
2019-05-11T21:40:23.151Z,100419.54
2019-05-11T21:42:55.079Z,100426.39
2019-05-11T21:45:25.750Z,100427.18
2019-05-11T21:47:57.973Z,100431.01
2019-05-11T21:50:48.149Z,100437.91
2019-05-11T21:53:19.256Z,100433.78
2019-05-11T21:55:50.254Z,100449.10
2019-05-11T21:58:20.962Z,100442.42
2019-05-11T22:00:51.935Z,100442.59
2019-05-11T22:03:24.263Z,100444.27
2019-05-11T22:05:55.217Z,100441.41
2019-05-11T22:08:28.217Z,100446.87
2019-05-11T22:11:00.012Z,100454.72
2019-05-11T22:13:31.221Z,100457.44
2019-05-11T22:16:02.273Z,100465.84
2019-05-11T22:18:32.956Z,100473.19
2019-05-11T22:21:03.935Z,100479.50
2019-05-11T22:23:35.223Z,100492.44
2019-05-11T22:26:07.769Z,100497.97
2019-05-11T22:28:39.312Z,100506.23
2019-05-11T22:31:10.213Z,100507.11
2019-05-11T22:33:40.918Z,100511.77
2019-05-11T22:36:11.855Z,100518.81
2019-05-11T22:38:42.595Z,100521.51
2019-05-11T22:41:13.721Z,100523.69
2019-05-11T22:43:44.432Z,100529.33
2019-05-11T22:46:17.746Z,100543.23
2019-05-11T22:48:49.107Z,100539.03
2019-05-11T22:51:20.154Z,100543.23
2019-05-11T22:53:50.869Z,100542.92
2019-05-11T22:56:21.564Z,100550.45
2019-05-11T22:58:52.246Z,100558.13
2019-05-11T23:01:23.251Z,100551.89
2019-05-11T23:03:55.316Z,100559.40
2019-05-11T23:06:26.011Z,100560.60
2019-05-11T23:08:58.705Z,100569.16
2019-05-11T23:11:29.890Z,100579.09
2019-05-11T23:14:00.891Z,100582.73
2019-05-11T23:16:31.629Z,100592.20
2019-05-11T23:19:02.690Z,100601.25
2019-05-11T23:21:33.639Z,100616.34
2019-05-11T23:24:07.682Z,100622.95
2019-05-11T23:26:38.739Z,100642.38
2019-05-11T23:29:09.549Z,100649.93
2019-05-11T23:31:40.552Z,100654.65
2019-05-11T23:34:11.502Z,100653.94
2019-05-11T23:36:42.182Z,100659.03
2019-05-11T23:39:12.846Z,100664.57
2019-05-11T23:41:43.670Z,100671.83
2019-05-11T23:44:14.644Z,100677.91
2019-05-11T23:46:47.708Z,100678.19
2019-05-11T23:49:18.093Z,100681.13
2019-05-11T23:51:49.287Z,100678.13
2019-05-11T23:54:19.954Z,100690.92
2019-05-11T23:56:52.175Z,100699.58
2019-05-11T23:59:22.836Z,100698.89
